SBCJ/CKS METAR and TAF weather

Enter ICAO airport designator
Station Type Date Time Source
SBCJ METAR 2020/01/28 21:30 UTC NOAA

SBCJ 282130Z 00000KT 9999 FEW030 26/22 Q1013


Station Type Date Time Source
SBCJ Decoded METAR 2020/01/28 21:30 UTC NOAA

Carajas / Maraba, Brazil (SBCJ) 06-07S 050-00W
Jan 28, 2020 - 04:30 PM EST / 2020.01.28 2130 UTC
Wind: Calm:0
Visibility: greater than 7 mile(s):0
Sky conditions: mostly clear
Temperature: 78 F (26 C)
Dew Point: 71 F (22 C)
Relative Humidity: 78%
Pressure (altimeter): 29.91 in. Hg (1013 hPa)
ob: SBCJ 282130Z 00000KT 9999 FEW030 26/22 Q1013
cycle: 21

Station Type Date Time Source
SBCJ TAF 2020/01/29 06:39 UTC NOAA

TAF TAF SBCJ 290230Z 2906/2918 00000KT 9999 SCT020 TN23/2911Z TX29/2918Z
BECMG 2906/2908 04005KT
BECMG 2911/2913 06005KT
RMK PGW

Example: see airport list